sensor_id;sensor_type;location;lat;lon;timestamp;P1;durP1;ratioP1;P2;durP2;ratioP2
34767;SDS011;21755;43.608;1.236;2023-05-20T00:02:14;21.15;;;6.00;;
34767;SDS011;21755;43.608;1.236;2023-05-20T00:04:40;11.13;;;5.07;;
34767;SDS011;21755;43.608;1.236;2023-05-20T00:07:07;10.27;;;5.00;;
34767;SDS011;21755;43.608;1.236;2023-05-20T00:09:33;15.85;;;6.13;;
34767;SDS011;21755;43.608;1.236;2023-05-20T00:11:59;11.05;;;5.22;;
34767;SDS011;21755;43.608;1.236;2023-05-20T00:14:25;13.02;;;4.88;;
34767;SDS011;21755;43.608;1.236;2023-05-20T00:16:51;10.35;;;5.38;;
34767;SDS011;21755;43.608;1.236;2023-05-20T00:19:17;13.73;;;5.95;;
34767;SDS011;21755;43.608;1.236;2023-05-20T00:21:42;15.07;;;5.75;;
34767;SDS011;21755;43.608;1.236;2023-05-20T00:24:08;18.88;;;6.07;;
34767;SDS011;21755;43.608;1.236;2023-05-20T00:26:34;13.15;;;5.75;;
34767;SDS011;21755;43.608;1.236;2023-05-20T00:29:00;10.13;;;5.57;;
34767;SDS011;21755;43.608;1.236;2023-05-20T00:31:26;14.55;;;5.70;;
34767;SDS011;21755;43.608;1.236;2023-05-20T00:33:52;14.80;;;5.85;;
34767;SDS011;21755;43.608;1.236;2023-05-20T00:36:18;13.07;;;5.68;;
34767;SDS011;21755;43.608;1.236;2023-05-20T00:38:44;18.92;;;5.70;;
34767;SDS011;21755;43.608;1.236;2023-05-20T00:41:10;13.45;;;5.90;;
34767;SDS011;21755;43.608;1.236;2023-05-20T00:43:36;19.75;;;6.43;;
34767;SDS011;21755;43.608;1.236;2023-05-20T00:46:02;17.85;;;6.10;;
34767;SDS011;21755;43.608;1.236;2023-05-20T00:48:29;13.05;;;6.03;;
34767;SDS011;21755;43.608;1.236;2023-05-20T00:51:04;14.73;;;5.80;;
34767;SDS011;21755;43.608;1.236;2023-05-20T00:53:31;11.07;;;5.55;;
34767;SDS011;21755;43.608;1.236;2023-05-20T00:55:59;12.95;;;6.15;;
34767;SDS011;21755;43.608;1.236;2023-05-20T00:58:25;18.88;;;5.95;;
34767;SDS011;21755;43.608;1.236;2023-05-20T01:00:51;17.67;;;5.55;;
34767;SDS011;21755;43.608;1.236;2023-05-20T01:03:17;12.68;;;6.03;;
34767;SDS011;21755;43.608;1.236;2023-05-20T01:05:43;12.13;;;6.20;;
34767;SDS011;21755;43.608;1.236;2023-05-20T01:08:09;14.57;;;6.28;;
34767;SDS011;21755;43.608;1.236;2023-05-20T01:10:36;12.32;;;5.78;;
34767;SDS011;21755;43.608;1.236;2023-05-20T01:13:07;16.40;;;6.25;;
34767;SDS011;21755;43.608;1.236;2023-05-20T01:15:35;12.82;;;6.00;;
34767;SDS011;21755;43.608;1.236;2023-05-20T01:18:04;13.80;;;5.88;;
34767;SDS011;21755;43.608;1.236;2023-05-20T01:20:35;12.20;;;6.10;;
34767;SDS011;21755;43.608;1.236;2023-05-20T01:23:02;15.50;;;6.30;;
34767;SDS011;21755;43.608;1.236;2023-05-20T01:25:28;18.65;;;6.28;;
34767;SDS011;21755;43.608;1.236;2023-05-20T01:27:54;13.85;;;6.13;;
34767;SDS011;21755;43.608;1.236;2023-05-20T01:30:25;15.23;;;6.43;;
34767;SDS011;21755;43.608;1.236;2023-05-20T01:33:03;14.65;;;6.18;;
34767;SDS011;21755;43.608;1.236;2023-05-20T01:35:32;19.33;;;6.68;;
34767;SDS011;21755;43.608;1.236;2023-05-20T01:37:59;15.30;;;6.43;;
34767;SDS011;21755;43.608;1.236;2023-05-20T01:40:26;18.75;;;6.55;;
34767;SDS011;21755;43.608;1.236;2023-05-20T01:42:53;14.90;;;6.20;;
34767;SDS011;21755;43.608;1.236;2023-05-20T01:45:20;14.75;;;6.97;;
34767;SDS011;21755;43.608;1.236;2023-05-20T01:47:49;18.67;;;6.30;;
34767;SDS011;21755;43.608;1.236;2023-05-20T01:50:15;12.70;;;6.68;;
34767;SDS011;21755;43.608;1.236;2023-05-20T01:52:40;14.23;;;7.07;;
34767;SDS011;21755;43.608;1.236;2023-05-20T01:55:06;12.32;;;6.13;;
34767;SDS011;21755;43.608;1.236;2023-05-20T01:57:33;12.02;;;6.38;;
34767;SDS011;21755;43.608;1.236;2023-05-20T01:59:58;17.80;;;5.93;;
34767;SDS011;21755;43.608;1.236;2023-05-20T02:02:24;23.35;;;7.10;;
34767;SDS011;21755;43.608;1.236;2023-05-20T02:04:50;16.05;;;7.78;;
34767;SDS011;21755;43.608;1.236;2023-05-20T02:07:17;12.85;;;6.68;;
34767;SDS011;21755;43.608;1.236;2023-05-20T02:09:44;23.85;;;7.07;;
34767;SDS011;21755;43.608;1.236;2023-05-20T02:12:10;16.42;;;7.20;;
34767;SDS011;21755;43.608;1.236;2023-05-20T02:14:40;16.80;;;7.15;;
34767;SDS011;21755;43.608;1.236;2023-05-20T02:17:08;13.75;;;7.22;;
34767;SDS011;21755;43.608;1.236;2023-05-20T02:19:34;15.27;;;7.07;;
34767;SDS011;21755;43.608;1.236;2023-05-20T02:21:59;15.75;;;7.35;;
34767;SDS011;21755;43.608;1.236;2023-05-20T02:24:25;20.13;;;6.82;;
34767;SDS011;21755;43.608;1.236;2023-05-20T02:26:51;21.48;;;7.93;;
34767;SDS011;21755;43.608;1.236;2023-05-20T02:29:18;22.42;;;8.48;;
34767;SDS011;21755;43.608;1.236;2023-05-20T02:31:46;24.17;;;7.60;;
34767;SDS011;21755;43.608;1.236;2023-05-20T02:34:13;13.15;;;6.55;;
34767;SDS011;21755;43.608;1.236;2023-05-20T02:36:43;23.75;;;7.65;;
34767;SDS011;21755;43.608;1.236;2023-05-20T02:39:08;19.63;;;7.15;;
34767;SDS011;21755;43.608;1.236;2023-05-20T02:41:34;17.58;;;7.20;;
34767;SDS011;21755;43.608;1.236;2023-05-20T02:44:00;20.98;;;7.30;;
34767;SDS011;21755;43.608;1.236;2023-05-20T02:46:26;15.15;;;7.30;;
34767;SDS011;21755;43.608;1.236;2023-05-20T02:48:52;22.25;;;7.13;;
34767;SDS011;21755;43.608;1.236;2023-05-20T02:51:18;21.35;;;7.40;;
34767;SDS011;21755;43.608;1.236;2023-05-20T02:53:43;21.13;;;7.35;;
34767;SDS011;21755;43.608;1.236;2023-05-20T02:56:10;16.90;;;6.78;;
34767;SDS011;21755;43.608;1.236;2023-05-20T02:58:37;19.45;;;7.95;;
34767;SDS011;21755;43.608;1.236;2023-05-20T03:01:03;13.55;;;6.80;;
34767;SDS011;21755;43.608;1.236;2023-05-20T03:03:29;15.07;;;7.60;;
34767;SDS011;21755;43.608;1.236;2023-05-20T03:05:54;15.52;;;7.82;;
34767;SDS011;21755;43.608;1.236;2023-05-20T03:08:21;20.20;;;8.90;;
34767;SDS011;21755;43.608;1.236;2023-05-20T03:10:47;18.80;;;7.40;;
34767;SDS011;21755;43.608;1.236;2023-05-20T03:13:13;15.95;;;7.13;;
34767;SDS011;21755;43.608;1.236;2023-05-20T03:15:40;14.90;;;7.22;;
34767;SDS011;21755;43.608;1.236;2023-05-20T03:18:08;21.30;;;7.57;;
34767;SDS011;21755;43.608;1.236;2023-05-20T03:20:34;15.63;;;7.50;;
34767;SDS011;21755;43.608;1.236;2023-05-20T03:23:03;18.60;;;7.68;;
34767;SDS011;21755;43.608;1.236;2023-05-20T03:25:29;19.92;;;8.48;;
34767;SDS011;21755;43.608;1.236;2023-05-20T03:27:55;20.73;;;7.38;;
34767;SDS011;21755;43.608;1.236;2023-05-20T03:30:23;19.67;;;7.97;;
34767;SDS011;21755;43.608;1.236;2023-05-20T03:32:50;12.63;;;7.40;;
34767;SDS011;21755;43.608;1.236;2023-05-20T03:35:16;14.95;;;7.55;;
34767;SDS011;21755;43.608;1.236;2023-05-20T03:37:42;22.33;;;8.88;;
34767;SDS011;21755;43.608;1.236;2023-05-20T03:40:08;14.52;;;7.03;;
34767;SDS011;21755;43.608;1.236;2023-05-20T03:42:34;21.70;;;7.85;;
34767;SDS011;21755;43.608;1.236;2023-05-20T03:45:01;17.45;;;8.23;;
34767;SDS011;21755;43.608;1.236;2023-05-20T03:47:27;19.60;;;8.00;;
34767;SDS011;21755;43.608;1.236;2023-05-20T03:49:53;14.65;;;7.28;;
34767;SDS011;21755;43.608;1.236;2023-05-20T03:52:19;19.85;;;7.95;;
34767;SDS011;21755;43.608;1.236;2023-05-20T03:54:45;21.00;;;8.35;;
34767;SDS011;21755;43.608;1.236;2023-05-20T03:57:11;23.60;;;8.60;;
34767;SDS011;21755;43.608;1.236;2023-05-20T03:59:37;21.58;;;8.10;;
34767;SDS011;21755;43.608;1.236;2023-05-20T04:02:04;25.02;;;7.85;;
34767;SDS011;21755;43.608;1.236;2023-05-20T04:04:30;19.13;;;8.52;;
34767;SDS011;21755;43.608;1.236;2023-05-20T04:06:57;21.40;;;7.63;;
34767;SDS011;21755;43.608;1.236;2023-05-20T04:09:27;19.92;;;8.75;;
34767;SDS011;21755;43.608;1.236;2023-05-20T04:11:53;20.50;;;8.68;;
34767;SDS011;21755;43.608;1.236;2023-05-20T04:14:19;19.52;;;8.02;;
34767;SDS011;21755;43.608;1.236;2023-05-20T04:16:44;22.42;;;8.32;;
34767;SDS011;21755;43.608;1.236;2023-05-20T04:19:10;21.80;;;9.02;;
34767;SDS011;21755;43.608;1.236;2023-05-20T04:21:37;22.92;;;8.80;;
34767;SDS011;21755;43.608;1.236;2023-05-20T04:24:03;19.30;;;8.73;;
34767;SDS011;21755;43.608;1.236;2023-05-20T04:26:29;12.57;;;7.43;;
34767;SDS011;21755;43.608;1.236;2023-05-20T04:28:55;20.65;;;7.85;;
34767;SDS011;21755;43.608;1.236;2023-05-20T04:31:23;18.30;;;7.45;;
34767;SDS011;21755;43.608;1.236;2023-05-20T04:33:52;17.33;;;7.70;;
34767;SDS011;21755;43.608;1.236;2023-05-20T04:36:18;17.42;;;7.57;;
34767;SDS011;21755;43.608;1.236;2023-05-20T04:38:44;19.83;;;8.48;;
34767;SDS011;21755;43.608;1.236;2023-05-20T04:41:12;18.98;;;8.38;;
34767;SDS011;21755;43.608;1.236;2023-05-20T04:43:40;15.95;;;7.93;;
34767;SDS011;21755;43.608;1.236;2023-05-20T04:46:06;18.45;;;8.25;;
34767;SDS011;21755;43.608;1.236;2023-05-20T04:48:33;21.13;;;8.57;;
34767;SDS011;21755;43.608;1.236;2023-05-20T04:50:59;17.73;;;7.97;;
34767;SDS011;21755;43.608;1.236;2023-05-20T04:53:25;16.63;;;7.40;;
34767;SDS011;21755;43.608;1.236;2023-05-20T04:55:54;21.92;;;8.00;;
34767;SDS011;21755;43.608;1.236;2023-05-20T04:58:21;17.30;;;7.80;;
34767;SDS011;21755;43.608;1.236;2023-05-20T05:00:48;17.33;;;8.32;;
34767;SDS011;21755;43.608;1.236;2023-05-20T05:03:15;23.33;;;8.30;;
34767;SDS011;21755;43.608;1.236;2023-05-20T05:05:42;19.73;;;8.50;;
34767;SDS011;21755;43.608;1.236;2023-05-20T05:08:08;19.42;;;8.00;;
34767;SDS011;21755;43.608;1.236;2023-05-20T05:10:38;16.60;;;9.10;;
34767;SDS011;21755;43.608;1.236;2023-05-20T05:13:04;19.25;;;8.63;;
34767;SDS011;21755;43.608;1.236;2023-05-20T05:15:29;23.45;;;8.60;;
34767;SDS011;21755;43.608;1.236;2023-05-20T05:17:55;21.65;;;8.27;;
34767;SDS011;21755;43.608;1.236;2023-05-20T05:20:21;16.98;;;8.25;;
34767;SDS011;21755;43.608;1.236;2023-05-20T05:22:47;22.45;;;8.77;;
34767;SDS011;21755;43.608;1.236;2023-05-20T05:25:15;19.73;;;9.18;;
34767;SDS011;21755;43.608;1.236;2023-05-20T05:27:41;20.58;;;9.15;;
34767;SDS011;21755;43.608;1.236;2023-05-20T05:30:08;21.65;;;8.68;;
34767;SDS011;21755;43.608;1.236;2023-05-20T05:32:35;20.30;;;9.57;;
34767;SDS011;21755;43.608;1.236;2023-05-20T05:35:02;21.77;;;9.52;;
34767;SDS011;21755;43.608;1.236;2023-05-20T05:37:28;23.58;;;9.40;;
34767;SDS011;21755;43.608;1.236;2023-05-20T05:39:54;23.38;;;8.55;;
34767;SDS011;21755;43.608;1.236;2023-05-20T05:42:20;21.38;;;9.57;;
34767;SDS011;21755;43.608;1.236;2023-05-20T05:44:45;21.52;;;9.15;;
34767;SDS011;21755;43.608;1.236;2023-05-20T05:47:12;21.77;;;8.15;;
34767;SDS011;21755;43.608;1.236;2023-05-20T05:49:38;19.02;;;8.95;;
34767;SDS011;21755;43.608;1.236;2023-05-20T05:52:04;14.15;;;8.85;;
34767;SDS011;21755;43.608;1.236;2023-05-20T05:54:30;16.42;;;8.45;;
34767;SDS011;21755;43.608;1.236;2023-05-20T05:56:56;20.55;;;8.50;;
34767;SDS011;21755;43.608;1.236;2023-05-20T05:59:22;18.70;;;8.02;;
34767;SDS011;21755;43.608;1.236;2023-05-20T06:01:47;27.77;;;10.38;;
34767;SDS011;21755;43.608;1.236;2023-05-20T06:04:13;22.83;;;8.40;;
34767;SDS011;21755;43.608;1.236;2023-05-20T06:06:39;19.50;;;8.35;;
34767;SDS011;21755;43.608;1.236;2023-05-20T06:09:05;24.38;;;8.65;;
34767;SDS011;21755;43.608;1.236;2023-05-20T06:11:31;19.10;;;8.43;;
34767;SDS011;21755;43.608;1.236;2023-05-20T06:13:57;20.30;;;9.43;;
34767;SDS011;21755;43.608;1.236;2023-05-20T06:16:24;18.65;;;8.48;;
34767;SDS011;21755;43.608;1.236;2023-05-20T06:18:50;21.23;;;9.27;;
34767;SDS011;21755;43.608;1.236;2023-05-20T06:21:17;23.25;;;9.07;;
34767;SDS011;21755;43.608;1.236;2023-05-20T06:23:43;18.42;;;8.25;;
34767;SDS011;21755;43.608;1.236;2023-05-20T06:26:09;22.10;;;8.73;;
34767;SDS011;21755;43.608;1.236;2023-05-20T06:28:35;18.23;;;8.27;;
34767;SDS011;21755;43.608;1.236;2023-05-20T06:31:01;22.48;;;8.48;;
34767;SDS011;21755;43.608;1.236;2023-05-20T06:33:27;22.88;;;10.48;;
34767;SDS011;21755;43.608;1.236;2023-05-20T06:35:54;16.95;;;8.10;;
34767;SDS011;21755;43.608;1.236;2023-05-20T06:38:20;16.38;;;8.20;;
34767;SDS011;21755;43.608;1.236;2023-05-20T06:40:47;27.95;;;8.77;;
34767;SDS011;21755;43.608;1.236;2023-05-20T06:43:14;17.02;;;7.97;;
34767;SDS011;21755;43.608;1.236;2023-05-20T06:45:40;17.27;;;8.23;;
34767;SDS011;21755;43.608;1.236;2023-05-20T06:48:06;20.77;;;9.45;;
34767;SDS011;21755;43.608;1.236;2023-05-20T06:50:32;16.08;;;7.78;;
34767;SDS011;21755;43.608;1.236;2023-05-20T06:52:58;16.55;;;7.97;;
34767;SDS011;21755;43.608;1.236;2023-05-20T06:55:25;14.90;;;7.35;;
34767;SDS011;21755;43.608;1.236;2023-05-20T06:57:51;21.05;;;9.00;;
34767;SDS011;21755;43.608;1.236;2023-05-20T07:00:17;17.67;;;7.75;;
34767;SDS011;21755;43.608;1.236;2023-05-20T07:02:43;18.05;;;7.72;;
34767;SDS011;21755;43.608;1.236;2023-05-20T07:05:10;21.50;;;8.15;;
34767;SDS011;21755;43.608;1.236;2023-05-20T07:07:36;16.02;;;8.00;;
34767;SDS011;21755;43.608;1.236;2023-05-20T07:10:02;22.95;;;9.30;;
34767;SDS011;21755;43.608;1.236;2023-05-20T07:12:30;19.13;;;8.05;;
34767;SDS011;21755;43.608;1.236;2023-05-20T07:14:56;19.85;;;8.02;;
34767;SDS011;21755;43.608;1.236;2023-05-20T07:17:22;21.05;;;7.07;;
34767;SDS011;21755;43.608;1.236;2023-05-20T07:19:49;13.43;;;6.88;;
34767;SDS011;21755;43.608;1.236;2023-05-20T07:22:15;14.43;;;7.07;;
34767;SDS011;21755;43.608;1.236;2023-05-20T07:24:41;19.27;;;7.32;;
34767;SDS011;21755;43.608;1.236;2023-05-20T07:27:07;24.20;;;7.95;;
34767;SDS011;21755;43.608;1.236;2023-05-20T07:29:36;16.83;;;7.20;;
34767;SDS011;21755;43.608;1.236;2023-05-20T07:32:02;16.80;;;7.25;;
34767;SDS011;21755;43.608;1.236;2023-05-20T07:34:32;16.58;;;6.63;;
34767;SDS011;21755;43.608;1.236;2023-05-20T07:36:58;14.57;;;7.40;;
34767;SDS011;21755;43.608;1.236;2023-05-20T07:39:23;15.05;;;6.93;;
34767;SDS011;21755;43.608;1.236;2023-05-20T07:41:50;19.65;;;6.70;;
34767;SDS011;21755;43.608;1.236;2023-05-20T07:44:16;19.67;;;7.88;;
34767;SDS011;21755;43.608;1.236;2023-05-20T07:46:46;18.05;;;7.03;;
34767;SDS011;21755;43.608;1.236;2023-05-20T07:49:12;14.63;;;7.28;;
34767;SDS011;21755;43.608;1.236;2023-05-20T07:51:38;21.00;;;7.93;;
34767;SDS011;21755;43.608;1.236;2023-05-20T07:54:04;21.02;;;7.28;;
34767;SDS011;21755;43.608;1.236;2023-05-20T07:56:33;15.55;;;6.72;;
34767;SDS011;21755;43.608;1.236;2023-05-20T07:59:04;17.10;;;7.10;;
34767;SDS011;21755;43.608;1.236;2023-05-20T08:01:30;20.98;;;6.75;;
34767;SDS011;21755;43.608;1.236;2023-05-20T08:03:56;12.15;;;7.13;;
34767;SDS011;21755;43.608;1.236;2023-05-20T08:06:22;14.30;;;7.35;;
34767;SDS011;21755;43.608;1.236;2023-05-20T08:08:50;19.20;;;6.03;;
34767;SDS011;21755;43.608;1.236;2023-05-20T08:11:20;10.52;;;5.00;;
34767;SDS011;21755;43.608;1.236;2023-05-20T08:13:46;13.88;;;6.10;;
34767;SDS011;21755;43.608;1.236;2023-05-20T08:16:12;14.77;;;5.75;;
34767;SDS011;21755;43.608;1.236;2023-05-20T08:18:38;8.52;;;5.50;;
34767;SDS011;21755;43.608;1.236;2023-05-20T08:21:04;12.30;;;5.85;;
34767;SDS011;21755;43.608;1.236;2023-05-20T08:23:34;12.68;;;5.80;;
34767;SDS011;21755;43.608;1.236;2023-05-20T08:26:01;10.68;;;4.97;;
34767;SDS011;21755;43.608;1.236;2023-05-20T08:28:27;8.60;;;5.40;;
34767;SDS011;21755;43.608;1.236;2023-05-20T08:30:54;17.95;;;5.85;;
34767;SDS011;21755;43.608;1.236;2023-05-20T08:33:20;12.95;;;5.25;;
34767;SDS011;21755;43.608;1.236;2023-05-20T08:35:49;15.85;;;6.10;;
34767;SDS011;21755;43.608;1.236;2023-05-20T08:38:15;11.23;;;5.50;;
34767;SDS011;21755;43.608;1.236;2023-05-20T08:40:41;13.43;;;6.10;;
34767;SDS011;21755;43.608;1.236;2023-05-20T08:43:06;11.43;;;5.30;;
34767;SDS011;21755;43.608;1.236;2023-05-20T08:45:33;14.45;;;4.97;;
34767;SDS011;21755;43.608;1.236;2023-05-20T08:48:02;10.25;;;4.97;;
34767;SDS011;21755;43.608;1.236;2023-05-20T08:50:31;11.90;;;5.82;;
34767;SDS011;21755;43.608;1.236;2023-05-20T08:52:58;11.93;;;5.00;;
34767;SDS011;21755;43.608;1.236;2023-05-20T08:55:25;12.32;;;5.10;;
34767;SDS011;21755;43.608;1.236;2023-05-20T08:57:57;11.93;;;4.55;;
34767;SDS011;21755;43.608;1.236;2023-05-20T09:00:23;10.25;;;4.95;;
34767;SDS011;21755;43.608;1.236;2023-05-20T09:02:52;9.60;;;4.82;;
34767;SDS011;21755;43.608;1.236;2023-05-20T09:05:19;13.70;;;4.80;;
34767;SDS011;21755;43.608;1.236;2023-05-20T09:07:46;14.43;;;5.15;;
34767;SDS011;21755;43.608;1.236;2023-05-20T09:10:12;11.25;;;4.68;;
34767;SDS011;21755;43.608;1.236;2023-05-20T09:12:38;14.55;;;4.40;;
34767;SDS011;21755;43.608;1.236;2023-05-20T09:15:04;9.57;;;4.35;;
34767;SDS011;21755;43.608;1.236;2023-05-20T09:17:31;9.85;;;3.92;;
34767;SDS011;21755;43.608;1.236;2023-05-20T09:20:00;10.98;;;4.35;;
34767;SDS011;21755;43.608;1.236;2023-05-20T09:22:27;6.68;;;3.90;;
34767;SDS011;21755;43.608;1.236;2023-05-20T09:24:53;9.27;;;3.50;;
34767;SDS011;21755;43.608;1.236;2023-05-20T09:27:20;11.48;;;4.10;;
34767;SDS011;21755;43.608;1.236;2023-05-20T09:29:46;11.35;;;4.50;;
34767;SDS011;21755;43.608;1.236;2023-05-20T09:32:13;13.00;;;4.30;;
34767;SDS011;21755;43.608;1.236;2023-05-20T09:34:40;8.45;;;4.10;;
34767;SDS011;21755;43.608;1.236;2023-05-20T09:37:07;10.35;;;3.75;;
34767;SDS011;21755;43.608;1.236;2023-05-20T09:39:47;8.30;;;3.72;;
34767;SDS011;21755;43.608;1.236;2023-05-20T09:42:30;9.55;;;4.13;;
34767;SDS011;21755;43.608;1.236;2023-05-20T09:44:59;5.60;;;3.15;;
34767;SDS011;21755;43.608;1.236;2023-05-20T09:47:28;6.50;;;3.35;;
34767;SDS011;21755;43.608;1.236;2023-05-20T09:49:55;7.63;;;3.90;;
34767;SDS011;21755;43.608;1.236;2023-05-20T09:52:22;14.55;;;4.13;;
34767;SDS011;21755;43.608;1.236;2023-05-20T09:54:52;9.50;;;3.78;;
34767;SDS011;21755;43.608;1.236;2023-05-20T09:57:20;11.95;;;3.63;;
34767;SDS011;21755;43.608;1.236;2023-05-20T09:59:46;8.90;;;3.53;;
34767;SDS011;21755;43.608;1.236;2023-05-20T10:02:14;13.02;;;4.80;;
34767;SDS011;21755;43.608;1.236;2023-05-20T10:04:41;9.40;;;3.92;;
34767;SDS011;21755;43.608;1.236;2023-05-20T10:10:10;7.35;;;3.53;;
34767;SDS011;21755;43.608;1.236;2023-05-20T10:12:50;15.95;;;5.10;;
34767;SDS011;21755;43.608;1.236;2023-05-20T10:15:52;8.80;;;3.72;;
34767;SDS011;21755;43.608;1.236;2023-05-20T10:18:39;6.32;;;3.70;;
34767;SDS011;21755;43.608;1.236;2023-05-20T10:21:16;7.82;;;3.67;;
34767;SDS011;21755;43.608;1.236;2023-05-20T10:23:43;11.05;;;3.63;;
34767;SDS011;21755;43.608;1.236;2023-05-20T10:26:09;6.78;;;3.72;;
34767;SDS011;21755;43.608;1.236;2023-05-20T10:28:36;7.00;;;3.45;;
34767;SDS011;21755;43.608;1.236;2023-05-20T10:31:17;12.80;;;3.88;;
34767;SDS011;21755;43.608;1.236;2023-05-20T10:33:47;5.90;;;3.30;;
34767;SDS011;21755;43.608;1.236;2023-05-20T10:36:26;8.05;;;3.40;;
34767;SDS011;21755;43.608;1.236;2023-05-20T10:38:55;9.63;;;3.58;;
34767;SDS011;21755;43.608;1.236;2023-05-20T10:41:25;6.57;;;3.00;;
34767;SDS011;21755;43.608;1.236;2023-05-20T10:44:01;8.57;;;3.33;;
34767;SDS011;21755;43.608;1.236;2023-05-20T10:46:31;11.05;;;3.30;;
34767;SDS011;21755;43.608;1.236;2023-05-20T10:48:58;5.20;;;2.75;;
34767;SDS011;21755;43.608;1.236;2023-05-20T10:51:27;7.10;;;2.80;;
34767;SDS011;21755;43.608;1.236;2023-05-20T10:53:55;9.20;;;2.58;;
34767;SDS011;21755;43.608;1.236;2023-05-20T10:56:22;6.35;;;2.92;;
34767;SDS011;21755;43.608;1.236;2023-05-20T10:58:50;9.00;;;3.22;;
34767;SDS011;21755;43.608;1.236;2023-05-20T11:01:17;8.13;;;2.83;;
34767;SDS011;21755;43.608;1.236;2023-05-20T11:03:48;7.53;;;3.20;;
34767;SDS011;21755;43.608;1.236;2023-05-20T11:06:16;6.68;;;2.92;;
34767;SDS011;21755;43.608;1.236;2023-05-20T11:08:43;8.05;;;3.20;;
34767;SDS011;21755;43.608;1.236;2023-05-20T11:11:09;9.48;;;3.47;;
34767;SDS011;21755;43.608;1.236;2023-05-20T11:13:39;8.63;;;3.40;;
34767;SDS011;21755;43.608;1.236;2023-05-20T11:16:05;9.45;;;3.50;;
34767;SDS011;21755;43.608;1.236;2023-05-20T11:18:31;5.95;;;2.90;;
34767;SDS011;21755;43.608;1.236;2023-05-20T11:21:01;9.00;;;2.80;;
34767;SDS011;21755;43.608;1.236;2023-05-20T11:23:27;10.70;;;4.15;;
34767;SDS011;21755;43.608;1.236;2023-05-20T11:25:54;5.80;;;2.40;;
34767;SDS011;21755;43.608;1.236;2023-05-20T11:28:21;7.18;;;2.47;;
34767;SDS011;21755;43.608;1.236;2023-05-20T11:30:48;6.38;;;2.47;;
34767;SDS011;21755;43.608;1.236;2023-05-20T11:33:16;3.42;;;2.13;;
34767;SDS011;21755;43.608;1.236;2023-05-20T11:35:50;5.82;;;2.45;;
34767;SDS011;21755;43.608;1.236;2023-05-20T11:38:17;4.20;;;2.35;;
34767;SDS011;21755;43.608;1.236;2023-05-20T11:40:45;6.72;;;2.22;;
34767;SDS011;21755;43.608;1.236;2023-05-20T11:43:15;5.95;;;2.40;;
34767;SDS011;21755;43.608;1.236;2023-05-20T11:45:41;5.47;;;2.60;;
34767;SDS011;21755;43.608;1.236;2023-05-20T11:48:09;4.43;;;2.38;;
34767;SDS011;21755;43.608;1.236;2023-05-20T11:50:40;6.70;;;2.92;;
34767;SDS011;21755;43.608;1.236;2023-05-20T11:53:08;17.20;;;4.82;;
34767;SDS011;21755;43.608;1.236;2023-05-20T11:58:25;6.00;;;2.70;;
34767;SDS011;21755;43.608;1.236;2023-05-20T12:00:54;6.85;;;2.85;;
34767;SDS011;21755;43.608;1.236;2023-05-20T12:03:20;9.85;;;2.92;;
34767;SDS011;21755;43.608;1.236;2023-05-20T12:05:46;4.03;;;2.20;;
34767;SDS011;21755;43.608;1.236;2023-05-20T12:08:13;6.82;;;2.28;;
34767;SDS011;21755;43.608;1.236;2023-05-20T12:10:39;3.08;;;2.20;;
34767;SDS011;21755;43.608;1.236;2023-05-20T12:13:05;5.22;;;2.13;;
34767;SDS011;21755;43.608;1.236;2023-05-20T12:15:35;2.97;;;2.38;;
34767;SDS011;21755;43.608;1.236;2023-05-20T12:18:02;5.18;;;2.50;;
34767;SDS011;21755;43.608;1.236;2023-05-20T12:20:28;6.45;;;2.40;;
34767;SDS011;21755;43.608;1.236;2023-05-20T12:22:58;4.93;;;2.30;;
34767;SDS011;21755;43.608;1.236;2023-05-20T12:25:25;7.65;;;2.65;;
34767;SDS011;21755;43.608;1.236;2023-05-20T12:27:51;9.43;;;2.20;;
34767;SDS011;21755;43.608;1.236;2023-05-20T12:30:20;5.60;;;2.92;;
34767;SDS011;21755;43.608;1.236;2023-05-20T12:32:48;5.63;;;2.40;;
34767;SDS011;21755;43.608;1.236;2023-05-20T12:35:23;5.18;;;2.10;;
34767;SDS011;21755;43.608;1.236;2023-05-20T12:38:00;5.85;;;2.38;;
34767;SDS011;21755;43.608;1.236;2023-05-20T12:40:25;7.68;;;2.25;;
34767;SDS011;21755;43.608;1.236;2023-05-20T12:42:51;7.00;;;2.13;;
34767;SDS011;21755;43.608;1.236;2023-05-20T12:45:17;9.15;;;2.05;;
34767;SDS011;21755;43.608;1.236;2023-05-20T12:47:43;9.80;;;2.28;;
34767;SDS011;21755;43.608;1.236;2023-05-20T12:50:09;5.47;;;2.03;;
34767;SDS011;21755;43.608;1.236;2023-05-20T12:52:35;4.75;;;2.17;;
34767;SDS011;21755;43.608;1.236;2023-05-20T12:55:01;6.25;;;1.70;;
34767;SDS011;21755;43.608;1.236;2023-05-20T12:57:27;5.93;;;1.63;;
34767;SDS011;21755;43.608;1.236;2023-05-20T12:59:53;3.97;;;1.85;;
34767;SDS011;21755;43.608;1.236;2023-05-20T13:02:19;4.28;;;2.05;;
34767;SDS011;21755;43.608;1.236;2023-05-20T13:04:45;7.45;;;1.90;;
34767;SDS011;21755;43.608;1.236;2023-05-20T13:07:11;2.70;;;1.52;;
34767;SDS011;21755;43.608;1.236;2023-05-20T13:09:37;3.58;;;1.63;;
34767;SDS011;21755;43.608;1.236;2023-05-20T13:12:03;3.13;;;2.10;;
34767;SDS011;21755;43.608;1.236;2023-05-20T13:14:29;4.10;;;1.88;;
34767;SDS011;21755;43.608;1.236;2023-05-20T13:16:56;4.68;;;1.73;;
34767;SDS011;21755;43.608;1.236;2023-05-20T13:19:21;5.55;;;2.05;;
34767;SDS011;21755;43.608;1.236;2023-05-20T13:21:48;2.78;;;1.60;;
34767;SDS011;21755;43.608;1.236;2023-05-20T13:24:15;6.57;;;2.40;;
34767;SDS011;21755;43.608;1.236;2023-05-20T13:26:41;4.03;;;2.05;;
34767;SDS011;21755;43.608;1.236;2023-05-20T13:29:08;5.45;;;2.45;;
34767;SDS011;21755;43.608;1.236;2023-05-20T13:31:34;3.63;;;2.15;;
34767;SDS011;21755;43.608;1.236;2023-05-20T13:34:00;4.43;;;2.15;;
34767;SDS011;21755;43.608;1.236;2023-05-20T13:36:26;7.30;;;1.98;;
34767;SDS011;21755;43.608;1.236;2023-05-20T13:38:52;5.47;;;1.80;;
34767;SDS011;21755;43.608;1.236;2023-05-20T13:41:18;2.78;;;1.80;;
34767;SDS011;21755;43.608;1.236;2023-05-20T13:43:44;3.35;;;1.77;;
34767;SDS011;21755;43.608;1.236;2023-05-20T13:46:10;5.80;;;2.00;;
34767;SDS011;21755;43.608;1.236;2023-05-20T13:48:36;3.92;;;1.90;;
34767;SDS011;21755;43.608;1.236;2023-05-20T13:51:02;4.72;;;1.98;;
34767;SDS011;21755;43.608;1.236;2023-05-20T13:53:28;4.55;;;2.10;;
34767;SDS011;21755;43.608;1.236;2023-05-20T13:55:54;5.15;;;1.90;;
34767;SDS011;21755;43.608;1.236;2023-05-20T13:58:20;4.82;;;2.35;;
34767;SDS011;21755;43.608;1.236;2023-05-20T14:00:46;9.70;;;2.35;;
34767;SDS011;21755;43.608;1.236;2023-05-20T14:03:12;8.93;;;1.77;;
34767;SDS011;21755;43.608;1.236;2023-05-20T14:05:37;4.18;;;1.63;;
34767;SDS011;21755;43.608;1.236;2023-05-20T14:08:04;4.10;;;1.35;;
34767;SDS011;21755;43.608;1.236;2023-05-20T14:10:30;5.68;;;1.90;;
34767;SDS011;21755;43.608;1.236;2023-05-20T14:12:56;2.45;;;1.67;;
34767;SDS011;21755;43.608;1.236;2023-05-20T14:15:23;5.50;;;1.95;;
34767;SDS011;21755;43.608;1.236;2023-05-20T14:17:48;4.32;;;2.05;;
34767;SDS011;21755;43.608;1.236;2023-05-20T14:20:14;3.55;;;1.52;;
34767;SDS011;21755;43.608;1.236;2023-05-20T14:22:41;6.43;;;2.13;;
34767;SDS011;21755;43.608;1.236;2023-05-20T14:25:07;4.68;;;2.00;;
34767;SDS011;21755;43.608;1.236;2023-05-20T14:27:33;6.80;;;1.63;;
34767;SDS011;21755;43.608;1.236;2023-05-20T14:29:59;4.32;;;1.73;;
34767;SDS011;21755;43.608;1.236;2023-05-20T14:32:25;7.75;;;1.80;;
34767;SDS011;21755;43.608;1.236;2023-05-20T14:34:52;2.42;;;1.55;;
34767;SDS011;21755;43.608;1.236;2023-05-20T14:37:17;3.50;;;1.92;;
34767;SDS011;21755;43.608;1.236;2023-05-20T14:39:43;3.53;;;2.03;;
34767;SDS011;21755;43.608;1.236;2023-05-20T14:42:10;3.70;;;2.38;;
34767;SDS011;21755;43.608;1.236;2023-05-20T14:44:36;3.42;;;2.10;;